createdAt,value
2022-12-22T00:01:55.640Z,29.38
2022-12-22T00:04:41.209Z,32.25
2022-12-22T00:07:26.676Z,34.13
2022-12-22T00:10:11.628Z,36.88
2022-12-22T00:12:57.911Z,34.63
2022-12-22T00:15:43.293Z,34.65
2022-12-22T00:18:33.819Z,37.30
2022-12-22T00:21:19.138Z,33.88
2022-12-22T00:24:03.952Z,44.40
2022-12-22T00:26:52.934Z,36.92
2022-12-22T00:29:38.671Z,40.42
2022-12-22T00:32:24.058Z,33.00
2022-12-22T00:35:10.495Z,39.70
2022-12-22T00:37:56.857Z,44.17
2022-12-22T00:40:45.710Z,44.25
2022-12-22T00:43:31.134Z,44.67
2022-12-22T00:46:18.420Z,45.72
2022-12-22T00:49:03.485Z,44.97
2022-12-22T00:51:49.919Z,46.58
2022-12-22T00:54:37.163Z,38.42
2022-12-22T00:57:22.540Z,46.25
2022-12-22T01:00:08.910Z,42.45
2022-12-22T01:02:54.048Z,42.78
2022-12-22T01:05:39.379Z,41.45
2022-12-22T01:08:24.648Z,39.63
2022-12-22T01:11:09.568Z,36.20
2022-12-22T01:13:54.279Z,42.40
2022-12-22T01:16:39.090Z,44.33
2022-12-22T01:19:23.863Z,38.17
2022-12-22T01:22:09.093Z,44.42
2022-12-22T01:24:53.824Z,39.25
2022-12-22T01:27:38.615Z,35.53
2022-12-22T01:30:23.953Z,48.92
2022-12-22T01:33:08.721Z,45.00
2022-12-22T01:35:54.077Z,36.97
2022-12-22T01:38:38.933Z,41.00
2022-12-22T01:41:28.778Z,31.42
2022-12-22T01:44:13.624Z,37.50
2022-12-22T01:47:04.605Z,38.00
2022-12-22T01:50:02.476Z,30.88
2022-12-22T01:52:51.325Z,33.72
2022-12-22T01:55:41.230Z,32.53
2022-12-22T01:58:39.208Z,34.90
2022-12-22T02:01:24.111Z,33.55
2022-12-22T02:04:09.246Z,34.72
2022-12-22T02:07:00.456Z,29.48
2022-12-22T02:10:08.046Z,33.40
2022-12-22T02:13:15.919Z,32.47
2022-12-22T02:16:12.164Z,31.75
2022-12-22T02:19:16.396Z,32.67
2022-12-22T02:22:21.911Z,29.38
2022-12-22T02:25:18.439Z,35.97
2022-12-22T02:28:06.001Z,30.08
2022-12-22T02:30:51.993Z,28.20
2022-12-22T02:33:39.379Z,28.33
2022-12-22T02:36:55.471Z,31.05
2022-12-22T02:40:01.804Z,37.10
2022-12-22T02:42:59.284Z,32.00
2022-12-22T02:45:58.905Z,33.60
2022-12-22T02:48:59.434Z,32.78
2022-12-22T02:51:47.264Z,34.08
2022-12-22T02:54:34.768Z,29.30
2022-12-22T02:57:25.120Z,33.00
2022-12-22T03:00:09.885Z,28.90
2022-12-22T03:02:54.917Z,28.40
2022-12-22T03:05:39.992Z,26.85
2022-12-22T03:08:24.863Z,25.00
2022-12-22T03:11:09.795Z,24.88
2022-12-22T03:13:54.606Z,19.77
2022-12-22T03:16:39.529Z,21.08
2022-12-22T03:19:24.703Z,24.58
2022-12-22T03:22:09.488Z,24.10
2022-12-22T03:24:54.397Z,16.25
2022-12-22T03:27:20.820Z,15.88
2022-12-22T03:29:47.226Z,18.20
2022-12-22T03:32:13.642Z,16.85
2022-12-22T03:34:40.047Z,17.52
2022-12-22T03:37:06.449Z,17.27
2022-12-22T03:39:32.883Z,22.45
2022-12-22T03:42:17.975Z,14.60
2022-12-22T03:45:02.746Z,18.60
2022-12-22T03:47:31.369Z,16.30
2022-12-22T03:49:58.113Z,17.98
2022-12-22T03:52:24.544Z,17.95
2022-12-22T03:54:51.278Z,14.82
2022-12-22T03:57:17.720Z,15.73
2022-12-22T03:59:44.152Z,15.00
2022-12-22T04:02:10.742Z,15.45
2022-12-22T04:04:37.271Z,18.45
2022-12-22T04:07:03.813Z,20.38
2022-12-22T04:09:30.255Z,15.23
2022-12-22T04:12:15.003Z,19.08
2022-12-22T04:14:41.431Z,20.48
2022-12-22T04:17:08.087Z,18.55
2022-12-22T04:19:34.532Z,20.58
2022-12-22T04:22:01.521Z,20.23
2022-12-22T04:24:28.070Z,21.42
2022-12-22T04:26:54.686Z,24.08
2022-12-22T04:29:21.184Z,25.08
2022-12-22T04:31:47.597Z,22.45
2022-12-22T04:34:14.058Z,27.52
2022-12-22T04:36:40.499Z,30.77
2022-12-22T04:39:06.891Z,29.50
2022-12-22T04:41:33.315Z,25.52
2022-12-22T04:43:59.858Z,25.73
2022-12-22T04:46:26.363Z,25.55
2022-12-22T04:48:59.285Z,24.30
2022-12-22T04:51:26.749Z,22.92
2022-12-22T04:53:53.140Z,24.77
2022-12-22T04:56:19.559Z,20.48
2022-12-22T04:58:45.956Z,21.58
2022-12-22T05:01:15.817Z,20.75
2022-12-22T05:03:42.671Z,17.35
2022-12-22T05:06:10.031Z,18.75
2022-12-22T05:08:36.944Z,15.45
2022-12-22T05:11:03.473Z,16.30
2022-12-22T05:13:31.738Z,13.45
2022-12-22T05:16:09.792Z,13.88
2022-12-22T05:18:36.992Z,14.18
2022-12-22T05:21:06.427Z,13.55
2022-12-22T05:23:33.417Z,11.60
2022-12-22T05:25:59.868Z,11.95
2022-12-22T05:28:26.317Z,13.10
2022-12-22T05:30:53.504Z,10.98
2022-12-22T05:33:20.943Z,11.50
2022-12-22T05:35:47.406Z,12.70
2022-12-22T05:38:13.847Z,8.95
2022-12-22T05:40:40.274Z,9.93
2022-12-22T05:43:06.715Z,9.80
2022-12-22T05:45:33.162Z,8.93
2022-12-22T05:47:59.655Z,7.38
2022-12-22T05:50:26.299Z,9.70
2022-12-22T05:53:04.441Z,7.00
2022-12-22T05:55:30.967Z,10.57
2022-12-22T05:57:57.423Z,7.65
2022-12-22T06:00:23.918Z,5.85
2022-12-22T06:02:50.463Z,7.78
2022-12-22T06:05:16.917Z,7.93
2022-12-22T06:07:43.405Z,7.28
2022-12-22T06:10:12.627Z,5.15
2022-12-22T06:12:40.265Z,6.35
2022-12-22T06:15:07.726Z,6.20
2022-12-22T06:17:36.777Z,8.40
2022-12-22T06:20:09.487Z,6.05
2022-12-22T06:22:36.009Z,6.97
2022-12-22T06:25:02.512Z,4.88
2022-12-22T06:27:28.931Z,7.50
2022-12-22T06:29:55.347Z,4.28
2022-12-22T06:32:21.731Z,4.55
2022-12-22T06:34:48.141Z,4.18
2022-12-22T06:37:14.524Z,5.97
2022-12-22T06:39:40.948Z,2.78
2022-12-22T06:42:27.317Z,4.03
2022-12-22T06:44:54.900Z,3.70
2022-12-22T06:47:21.948Z,4.28
2022-12-22T06:49:48.586Z,2.58
2022-12-22T06:52:14.991Z,3.42
2022-12-22T06:54:41.435Z,6.18
2022-12-22T06:57:07.840Z,5.63
2022-12-22T06:59:34.292Z,2.33
2022-12-22T07:02:00.842Z,4.00
2022-12-22T07:04:27.357Z,5.90
2022-12-22T07:06:53.772Z,4.95
2022-12-22T07:09:20.446Z,6.25
2022-12-22T07:11:46.845Z,2.58
2022-12-22T07:14:13.342Z,3.72
2022-12-22T07:16:39.880Z,4.53
2022-12-22T07:19:06.344Z,4.78
2022-12-22T07:21:32.732Z,3.10
2022-12-22T07:23:59.152Z,7.95
2022-12-22T07:26:25.623Z,3.47
2022-12-22T07:28:52.081Z,4.20
2022-12-22T07:31:18.956Z,6.35
2022-12-22T07:33:45.514Z,5.22
2022-12-22T07:36:15.088Z,5.57
2022-12-22T07:38:44.175Z,4.25
2022-12-22T07:41:31.285Z,8.05
2022-12-22T07:44:01.318Z,6.03
2022-12-22T07:46:30.378Z,4.22
2022-12-22T07:49:16.135Z,4.82
2022-12-22T07:51:43.241Z,6.03
2022-12-22T07:54:12.231Z,7.82
2022-12-22T07:56:39.074Z,6.30
2022-12-22T07:59:05.829Z,7.57
2022-12-22T08:01:32.590Z,4.53
2022-12-22T08:03:59.201Z,4.22
2022-12-22T08:06:26.438Z,3.00
2022-12-22T08:08:53.128Z,6.75
2022-12-22T08:11:19.632Z,6.28
2022-12-22T08:13:46.799Z,7.72
2022-12-22T08:16:14.404Z,5.90
2022-12-22T08:18:41.408Z,4.75
2022-12-22T08:21:09.017Z,4.55
2022-12-22T08:23:36.108Z,5.40
2022-12-22T08:26:31.069Z,7.93
2022-12-22T08:29:10.617Z,18.20
2022-12-22T08:31:38.072Z,8.68
2022-12-22T08:34:07.668Z,4.07
2022-12-22T08:36:38.268Z,3.85
2022-12-22T08:39:04.840Z,3.40
2022-12-22T08:41:50.302Z,7.88
2022-12-22T08:44:19.955Z,4.22
2022-12-22T08:46:47.277Z,5.93
2022-12-22T08:49:13.834Z,4.95
2022-12-22T08:51:40.430Z,7.38
2022-12-22T08:54:07.130Z,4.38
2022-12-22T08:56:34.371Z,5.25
2022-12-22T08:59:05.049Z,3.30
2022-12-22T09:01:33.205Z,1.95
2022-12-22T09:04:00.114Z,2.13
2022-12-22T09:06:28.499Z,3.83
2022-12-22T09:08:59.917Z,5.25
2022-12-22T09:11:28.101Z,3.13
2022-12-22T09:13:56.367Z,2.40
2022-12-22T09:16:24.816Z,7.18
2022-12-22T09:18:51.463Z,3.67
2022-12-22T09:21:18.111Z,3.47
2022-12-22T09:23:44.884Z,8.95
2022-12-22T09:26:13.616Z,3.50
2022-12-22T09:28:45.070Z,2.63
2022-12-22T09:31:14.994Z,13.35
2022-12-22T09:33:41.416Z,3.72
2022-12-22T09:36:13.985Z,2.88
2022-12-22T09:38:43.117Z,3.15
2022-12-22T09:41:15.413Z,7.28
2022-12-22T09:43:42.546Z,3.97
2022-12-22T09:46:27.597Z,4.10
2022-12-22T09:48:55.131Z,6.68
2022-12-22T09:51:27.076Z,3.78
2022-12-22T09:53:59.907Z,6.50
2022-12-22T09:56:28.169Z,4.82
2022-12-22T09:58:54.795Z,7.22
2022-12-22T10:01:39.180Z,1.98
2022-12-22T10:04:30.051Z,6.00
2022-12-22T10:07:10.377Z,6.45
2022-12-22T10:09:52.666Z,8.88
2022-12-22T10:12:23.053Z,4.55
2022-12-22T10:14:52.159Z,15.60
2022-12-22T10:17:34.184Z,6.15
2022-12-22T10:20:19.110Z,10.43
2022-12-22T10:22:49.695Z,16.50
2022-12-22T10:28:24.330Z,6.47
2022-12-22T10:31:10.681Z,8.35
2022-12-22T10:33:45.816Z,6.78
2022-12-22T10:36:14.427Z,7.75
2022-12-22T10:38:55.265Z,9.50
2022-12-22T10:41:24.443Z,16.55
2022-12-22T10:44:00.632Z,8.70
2022-12-22T10:46:44.146Z,9.75
2022-12-22T10:49:23.322Z,8.63
2022-12-22T10:51:56.168Z,7.70
2022-12-22T10:54:33.733Z,7.30
2022-12-22T10:57:01.179Z,11.40
2022-12-22T10:59:27.688Z,10.25
2022-12-22T11:01:54.192Z,10.43
2022-12-22T11:04:27.951Z,8.70
2022-12-22T11:06:58.387Z,5.88
2022-12-22T11:09:34.982Z,14.98
2022-12-22T11:12:17.489Z,9.02
2022-12-22T11:14:57.446Z,6.47
2022-12-22T11:17:32.871Z,7.78
2022-12-22T11:20:31.441Z,9.18
2022-12-22T11:23:05.607Z,8.38
2022-12-22T11:25:47.281Z,6.55
2022-12-22T11:28:47.950Z,7.32
2022-12-22T11:31:40.197Z,12.20
2022-12-22T11:34:09.539Z,7.00
2022-12-22T11:36:50.157Z,6.28
2022-12-22T11:39:23.298Z,9.05
2022-12-22T11:42:00.864Z,7.80
2022-12-22T11:44:39.860Z,4.43
2022-12-22T11:47:24.697Z,6.75
2022-12-22T11:50:58.555Z,6.70
2022-12-22T11:53:29.655Z,6.15
2022-12-22T11:56:23.826Z,7.00
2022-12-22T11:59:02.380Z,8.57
2022-12-22T12:02:01.587Z,5.35
2022-12-22T12:04:31.154Z,5.22
2022-12-22T12:07:25.980Z,7.03
2022-12-22T12:10:25.002Z,3.58
2022-12-22T12:13:12.858Z,4.47
2022-12-22T12:15:58.996Z,5.93
2022-12-22T12:18:26.768Z,8.80
2022-12-22T12:21:08.480Z,5.15
2022-12-22T12:23:59.824Z,7.57
2022-12-22T12:26:32.760Z,3.53
2022-12-22T12:29:28.406Z,6.82
2022-12-22T12:32:23.962Z,3.80
2022-12-22T12:34:56.992Z,6.95
2022-12-22T12:37:35.736Z,7.15
2022-12-22T12:40:26.863Z,6.05
2022-12-22T12:42:54.236Z,6.30
2022-12-22T12:45:39.654Z,5.25
2022-12-22T12:48:21.674Z,4.35
2022-12-22T12:50:55.470Z,3.95
2022-12-22T12:53:29.360Z,8.68
2022-12-22T12:56:01.558Z,4.75
2022-12-22T12:58:40.073Z,5.95
2022-12-22T13:01:18.585Z,4.63
2022-12-22T13:06:49.986Z,3.35
2022-12-22T13:12:39.791Z,4.15
2022-12-22T13:15:31.822Z,7.80
2022-12-22T13:17:59.028Z,4.90
2022-12-22T13:20:29.945Z,2.70
2022-12-22T13:22:59.037Z,3.50
2022-12-22T13:25:36.547Z,3.85
2022-12-22T13:28:03.619Z,6.20
2022-12-22T13:30:30.594Z,3.47
2022-12-22T13:33:02.011Z,2.20
2022-12-22T13:35:46.664Z,1.67
2022-12-22T13:38:35.814Z,3.97
2022-12-22T13:41:21.354Z,8.10
2022-12-22T13:43:59.514Z,3.60
2022-12-22T13:46:27.092Z,4.45
2022-12-22T13:48:56.823Z,5.30
2022-12-22T13:51:33.955Z,4.57
2022-12-22T13:54:22.796Z,4.60
2022-12-22T13:56:54.719Z,6.03
2022-12-22T13:59:40.515Z,7.22
2022-12-22T14:02:10.040Z,3.70
2022-12-22T14:04:38.954Z,4.05
2022-12-22T14:07:18.414Z,6.57
2022-12-22T14:09:46.516Z,6.38
2022-12-22T14:12:16.945Z,2.80
2022-12-22T14:14:45.868Z,4.25
2022-12-22T14:17:24.251Z,6.05
2022-12-22T14:19:53.537Z,5.47
2022-12-22T14:22:25.018Z,3.22
2022-12-22T14:24:55.560Z,8.20
2022-12-22T14:27:27.917Z,6.03
2022-12-22T14:29:54.738Z,6.82
2022-12-22T14:32:40.858Z,4.95
2022-12-22T14:35:19.409Z,3.33
2022-12-22T14:37:52.296Z,5.72
2022-12-22T14:40:36.027Z,5.90
2022-12-22T14:43:07.010Z,4.28
2022-12-22T14:45:33.941Z,4.97
2022-12-22T14:48:00.402Z,6.25
2022-12-22T14:50:28.412Z,4.93
2022-12-22T14:52:57.624Z,4.85
2022-12-22T14:55:42.108Z,5.15
2022-12-22T14:58:15.641Z,5.63
2022-12-22T15:00:48.298Z,4.07
2022-12-22T15:03:34.400Z,7.95
2022-12-22T15:06:24.480Z,8.88
2022-12-22T15:08:57.507Z,6.57
2022-12-22T15:11:24.412Z,5.00
2022-12-22T15:13:51.760Z,9.43
2022-12-22T15:16:21.409Z,12.90
2022-12-22T15:18:49.447Z,7.60
2022-12-22T15:21:17.868Z,6.38
2022-12-22T15:23:44.739Z,7.28
2022-12-22T15:26:11.395Z,8.65
2022-12-22T15:28:38.116Z,6.65
2022-12-22T15:31:11.790Z,9.77
2022-12-22T15:33:38.217Z,11.07
2022-12-22T15:36:06.402Z,8.02
2022-12-22T15:38:38.569Z,14.05
2022-12-22T15:41:05.791Z,9.75
2022-12-22T15:44:02.134Z,5.90
2022-12-22T15:46:18.857Z,9.57
2022-12-22T15:48:46.367Z,7.80
2022-12-22T15:51:22.324Z,5.50
2022-12-22T15:53:49.144Z,6.40
2022-12-22T15:56:20.237Z,8.10
2022-12-22T15:58:47.149Z,12.90
2022-12-22T16:01:13.672Z,10.23
2022-12-22T16:03:40.309Z,9.23
2022-12-22T16:06:13.689Z,6.60
2022-12-22T16:08:43.271Z,13.38
2022-12-22T16:11:09.788Z,9.43
2022-12-22T16:13:37.716Z,9.50
2022-12-22T16:16:05.082Z,19.35
2022-12-22T16:18:32.666Z,14.23
2022-12-22T16:21:07.837Z,8.52
2022-12-22T16:23:36.585Z,6.57
2022-12-22T16:26:04.791Z,9.35
2022-12-22T16:28:32.919Z,9.68
2022-12-22T16:31:00.488Z,5.03
2022-12-22T16:33:27.194Z,7.70
2022-12-22T16:35:53.708Z,9.35
2022-12-22T16:38:20.347Z,12.73
2022-12-22T16:40:50.275Z,11.10
2022-12-22T16:43:49.997Z,12.82
2022-12-22T16:46:19.680Z,7.97
2022-12-22T16:48:55.173Z,14.02
2022-12-22T16:51:25.752Z,13.38
2022-12-22T16:53:52.559Z,15.00
2022-12-22T16:56:22.695Z,11.25
2022-12-22T16:58:49.506Z,14.10
2022-12-22T17:01:27.109Z,15.38
2022-12-22T17:03:54.499Z,18.85
2022-12-22T17:06:21.115Z,18.02
2022-12-22T17:08:48.078Z,13.25
2022-12-22T17:11:26.024Z,15.98
2022-12-22T17:13:57.345Z,10.70
2022-12-22T17:18:50.434Z,16.42
2022-12-22T17:21:19.160Z,13.52
2022-12-22T17:23:49.701Z,10.10
2022-12-22T17:26:19.244Z,15.63
2022-12-22T17:28:47.094Z,15.20
2022-12-22T17:31:19.194Z,12.32
2022-12-22T17:33:46.137Z,15.60
2022-12-22T17:36:30.512Z,16.25
2022-12-22T17:38:57.672Z,15.43
2022-12-22T17:41:24.197Z,13.40
2022-12-22T17:43:50.605Z,18.15
2022-12-22T17:46:19.297Z,16.80
2022-12-22T17:48:46.219Z,15.27
2022-12-22T17:51:19.540Z,19.48
2022-12-22T17:53:46.602Z,11.77
2022-12-22T17:56:20.475Z,17.25
2022-12-22T17:58:47.186Z,10.40
2022-12-22T18:01:40.697Z,16.67
2022-12-22T18:04:10.038Z,10.60
2022-12-22T18:06:40.986Z,16.63
2022-12-22T18:09:08.122Z,15.07
2022-12-22T18:11:36.317Z,15.73
2022-12-22T18:14:04.561Z,10.82
2022-12-22T18:16:31.030Z,15.60
2022-12-22T18:18:57.462Z,18.98
2022-12-22T18:21:24.899Z,17.08
2022-12-22T18:23:51.553Z,19.13
2022-12-22T18:26:27.879Z,19.30
2022-12-22T18:28:55.377Z,13.88
2022-12-22T18:31:23.051Z,16.17
2022-12-22T18:33:50.772Z,18.92
2022-12-22T18:36:19.576Z,16.13
2022-12-22T18:38:47.910Z,17.42
2022-12-22T18:41:20.277Z,13.07
2022-12-22T18:43:46.927Z,12.90
2022-12-22T18:46:13.432Z,14.45
2022-12-22T18:48:39.933Z,27.50
2022-12-22T18:51:15.300Z,35.08
2022-12-22T18:53:41.699Z,13.95
2022-12-22T18:56:11.724Z,12.80
2022-12-22T18:58:38.221Z,12.25
2022-12-22T19:01:04.943Z,12.32
2022-12-22T19:03:31.612Z,13.77
2022-12-22T19:05:58.550Z,14.45
2022-12-22T19:08:27.199Z,13.07
2022-12-22T19:11:03.922Z,12.60
2022-12-22T19:13:36.776Z,20.92
2022-12-22T19:16:03.709Z,14.10
2022-12-22T19:18:30.159Z,18.65
2022-12-22T19:20:57.010Z,11.05
2022-12-22T19:23:25.704Z,15.05
2022-12-22T19:26:08.519Z,14.85
2022-12-22T19:28:42.443Z,13.60
2022-12-22T19:31:16.047Z,18.88
2022-12-22T19:33:43.475Z,15.32
2022-12-22T19:36:25.755Z,17.15
2022-12-22T19:39:05.744Z,12.95
2022-12-22T19:41:38.307Z,14.50
2022-12-22T19:44:05.697Z,12.73
2022-12-22T19:46:34.532Z,10.88
2022-12-22T19:49:01.105Z,17.70
2022-12-22T19:51:28.837Z,15.95
2022-12-22T19:53:55.343Z,9.20
2022-12-22T19:56:28.107Z,16.13
2022-12-22T19:58:55.637Z,16.05
2022-12-22T20:01:22.641Z,17.75
2022-12-22T20:03:49.257Z,14.20
2022-12-22T20:06:17.475Z,17.10
2022-12-22T20:08:44.667Z,14.80
2022-12-22T20:11:17.060Z,10.93
2022-12-22T20:13:44.089Z,13.15
2022-12-22T20:16:15.187Z,18.08
2022-12-22T20:18:42.537Z,16.52
2022-12-22T20:21:21.150Z,15.07
2022-12-22T20:23:48.166Z,12.35
2022-12-22T20:26:19.221Z,11.43
2022-12-22T20:28:45.715Z,10.80
2022-12-22T20:31:14.528Z,13.05
2022-12-22T20:33:41.249Z,18.17
2022-12-22T20:36:19.271Z,12.23
2022-12-22T20:38:46.127Z,12.55
2022-12-22T20:41:12.585Z,14.02
2022-12-22T20:43:39.529Z,13.48
2022-12-22T20:46:15.893Z,16.42
2022-12-22T20:48:46.781Z,12.85
2022-12-22T20:51:18.160Z,17.17
2022-12-22T20:56:28.099Z,16.67
2022-12-22T20:58:55.338Z,12.02
2022-12-22T21:01:23.516Z,14.45
2022-12-22T21:03:50.500Z,22.05
2022-12-22T21:06:29.224Z,13.85
2022-12-22T21:08:57.940Z,9.75
2022-12-22T21:11:25.541Z,10.30
2022-12-22T21:13:52.252Z,9.77
2022-12-22T21:16:23.671Z,12.40
2022-12-22T21:18:50.935Z,11.63
2022-12-22T21:21:17.546Z,18.23
2022-12-22T21:23:43.939Z,11.73
2022-12-22T21:26:29.171Z,11.13
2022-12-22T21:28:55.994Z,20.88
2022-12-22T21:31:22.508Z,12.00
2022-12-22T21:33:50.192Z,15.23
2022-12-22T21:36:22.621Z,12.55
2022-12-22T21:38:53.463Z,12.77
2022-12-22T21:41:39.859Z,14.93
2022-12-22T21:44:06.270Z,17.25
2022-12-22T21:46:33.329Z,14.85
2022-12-22T21:48:59.773Z,11.43
2022-12-22T21:51:26.193Z,12.50
2022-12-22T21:53:52.584Z,14.85
2022-12-22T21:56:19.367Z,10.45
2022-12-22T21:58:45.806Z,16.42
2022-12-22T22:01:15.828Z,12.02
2022-12-22T22:03:42.607Z,10.80
2022-12-22T22:06:09.068Z,10.13
2022-12-22T22:08:35.453Z,8.00
2022-12-22T22:11:01.836Z,8.27
2022-12-22T22:13:28.222Z,14.02
2022-12-22T22:15:54.682Z,14.00
2022-12-22T22:18:21.101Z,9.02
2022-12-22T22:20:47.899Z,12.75
2022-12-22T22:23:14.496Z,7.45
2022-12-22T22:25:41.009Z,8.02
2022-12-22T22:28:10.376Z,12.20
2022-12-22T22:30:36.812Z,10.25
2022-12-22T22:33:03.550Z,5.53
2022-12-22T22:35:29.998Z,9.68
2022-12-22T22:37:56.499Z,7.03
2022-12-22T22:40:23.588Z,6.72
2022-12-22T22:42:50.043Z,12.30
2022-12-22T22:45:23.037Z,6.60
2022-12-22T22:47:51.068Z,10.48
2022-12-22T22:50:18.907Z,7.32
2022-12-22T22:52:45.723Z,12.63
2022-12-22T22:55:12.734Z,14.95
2022-12-22T22:57:39.179Z,21.10
2022-12-22T23:00:06.497Z,10.93
2022-12-22T23:02:33.089Z,17.55
2022-12-22T23:04:59.612Z,20.85
2022-12-22T23:07:26.104Z,6.55
2022-12-22T23:09:52.573Z,7.57
2022-12-22T23:12:19.175Z,7.43
2022-12-22T23:14:45.643Z,6.40
2022-12-22T23:17:12.080Z,7.35
2022-12-22T23:19:38.572Z,7.00
2022-12-22T23:22:05.010Z,6.47
2022-12-22T23:24:31.439Z,11.30
2022-12-22T23:26:58.728Z,8.20
2022-12-22T23:29:25.228Z,10.90
2022-12-22T23:31:51.765Z,6.47
2022-12-22T23:34:18.234Z,15.95
2022-12-22T23:36:44.636Z,12.02
2022-12-22T23:39:11.188Z,12.25
2022-12-22T23:41:37.614Z,8.32
2022-12-22T23:44:04.024Z,20.33
2022-12-22T23:46:30.470Z,14.25
2022-12-22T23:48:58.455Z,11.50
2022-12-22T23:51:27.651Z,16.58
2022-12-22T23:53:55.383Z,13.93
2022-12-22T23:56:22.757Z,8.10
2022-12-22T23:58:54.573Z,10.07
